sensor_id;sensor_type;location;lat;lon;timestamp;pressure;altitude;pressure_sealevel;temperature;humidity
75065;BME280;63646;49.110;9.140;2022-10-04T00:03:15;100163.66;;;21.67;58.20
75065;BME280;63646;49.110;9.140;2022-10-04T00:05:42;100165.47;;;21.67;58.25
75065;BME280;63646;49.110;9.140;2022-10-04T00:10:47;100150.63;;;21.64;58.03
75065;BME280;63646;49.110;9.140;2022-10-04T00:13:23;100156.66;;;21.66;57.88
75065;BME280;63646;49.110;9.140;2022-10-04T00:15:50;100154.97;;;21.65;58.09
75065;BME280;63646;49.110;9.140;2022-10-04T00:18:29;100158.47;;;21.66;57.95
75065;BME280;63646;49.110;9.140;2022-10-04T00:20:59;100159.44;;;21.65;57.96
75065;BME280;63646;49.110;9.140;2022-10-04T00:41:57;100155.09;;;21.64;58.06
75065;BME280;63646;49.110;9.140;2022-10-04T00:44:46;100149.06;;;21.62;57.56
75065;BME280;63646;49.110;9.140;2022-10-04T00:49:52;100155.09;;;21.64;57.75
75065;BME280;63646;49.110;9.140;2022-10-04T00:52:32;100158.97;;;21.60;58.23
75065;BME280;63646;49.110;9.140;2022-10-04T00:55:03;100157.91;;;21.62;57.91
75065;BME280;63646;49.110;9.140;2022-10-04T00:57:36;100159.72;;;21.62;57.87
75065;BME280;63646;49.110;9.140;2022-10-04T01:00:07;100158.97;;;21.60;57.70
75065;BME280;63646;49.110;9.140;2022-10-04T01:07:51;100150.75;;;21.63;57.89
75065;BME280;63646;49.110;9.140;2022-10-04T01:13:15;100143.75;;;21.62;57.61
75065;BME280;63646;49.110;9.140;2022-10-04T01:15:43;100137.47;;;21.63;58.22
75065;BME280;63646;49.110;9.140;2022-10-04T01:18:26;100136.63;;;21.62;57.75
75065;BME280;63646;49.110;9.140;2022-10-04T01:20:57;100135.78;;;21.62;57.65
75065;BME280;63646;49.110;9.140;2022-10-04T01:25:58;100123.44;;;21.61;58.08
75065;BME280;63646;49.110;9.140;2022-10-04T01:28:24;100127.81;;;21.62;57.74
75065;BME280;63646;49.110;9.140;2022-10-04T01:30:50;100115.59;;;21.59;58.24
75065;BME280;63646;49.110;9.140;2022-10-04T01:33:17;100111.94;;;21.60;57.96
75065;BME280;63646;49.110;9.140;2022-10-04T01:35:43;100110.28;;;21.59;58.27
75065;BME280;63646;49.110;9.140;2022-10-04T01:38:09;100111.25;;;21.58;58.07
75065;BME280;63646;49.110;9.140;2022-10-04T01:40:41;100103.13;;;21.60;57.80
75065;BME280;63646;49.110;9.140;2022-10-04T01:43:11;100097.13;;;21.58;58.26
75065;BME280;63646;49.110;9.140;2022-10-04T01:48:11;100094.47;;;21.58;58.14
75065;BME280;63646;49.110;9.140;2022-10-04T01:55:38;100084.19;;;21.53;57.84
75065;BME280;63646;49.110;9.140;2022-10-04T01:58:18;100088.56;;;21.54;57.82
75065;BME280;63646;49.110;9.140;2022-10-04T02:00:59;100096.25;;;21.57;57.84
75065;BME280;63646;49.110;9.140;2022-10-04T02:03:34;100093.72;;;21.56;57.81
75065;BME280;63646;49.110;9.140;2022-10-04T02:06:04;100085.75;;;21.56;58.06
75065;BME280;63646;49.110;9.140;2022-10-04T02:08:33;100081.28;;;21.56;57.61
75065;BME280;63646;49.110;9.140;2022-10-04T02:11:02;100088.41;;;21.56;58.15
75065;BME280;63646;49.110;9.140;2022-10-04T02:13:34;100099.06;;;21.56;57.58
75065;BME280;63646;49.110;9.140;2022-10-04T02:16:01;100099.88;;;21.56;57.58
75065;BME280;63646;49.110;9.140;2022-10-04T02:18:28;100100.72;;;21.57;57.96
75065;BME280;63646;49.110;9.140;2022-10-04T02:20:56;100098.22;;;21.55;57.89
75065;BME280;63646;49.110;9.140;2022-10-04T02:23:23;100088.41;;;21.56;58.01
75065;BME280;63646;49.110;9.140;2022-10-04T02:25:49;100099.06;;;21.56;57.62
75065;BME280;63646;49.110;9.140;2022-10-04T02:28:14;100093.72;;;21.56;57.69
75065;BME280;63646;49.110;9.140;2022-10-04T02:30:46;100081.41;;;21.55;57.92
75065;BME280;63646;49.110;9.140;2022-10-04T02:33:36;100072.72;;;21.53;57.65
75065;BME280;63646;49.110;9.140;2022-10-04T02:36:02;100081.41;;;21.55;57.95
75065;BME280;63646;49.110;9.140;2022-10-04T02:38:34;100076.09;;;21.55;57.69
75065;BME280;63646;49.110;9.140;2022-10-04T02:41:15;100072.59;;;21.54;57.93
75065;BME280;63646;49.110;9.140;2022-10-04T02:44:09;100070.78;;;21.55;57.69
75065;BME280;63646;49.110;9.140;2022-10-04T02:46:51;100075.25;;;21.54;57.72
75065;BME280;63646;49.110;9.140;2022-10-04T02:49:28;100080.69;;;21.53;57.78
75065;BME280;63646;49.110;9.140;2022-10-04T02:52:06;100071.03;;;21.52;57.62
75065;BME280;63646;49.110;9.140;2022-10-04T02:54:43;100066.56;;;21.52;57.57
75065;BME280;63646;49.110;9.140;2022-10-04T02:57:18;100062.22;;;21.51;58.06
75065;BME280;63646;49.110;9.140;2022-10-04T02:59:44;100057.75;;;21.52;57.48
75065;BME280;63646;49.110;9.140;2022-10-04T03:02:27;100058.72;;;21.51;57.72
75065;BME280;63646;49.110;9.140;2022-10-04T03:04:57;100050.75;;;21.51;57.86
75065;BME280;63646;49.110;9.140;2022-10-04T03:07:23;100041.19;;;21.48;57.73
75065;BME280;63646;49.110;9.140;2022-10-04T03:09:50;100050.84;;;21.49;57.63
75065;BME280;63646;49.110;9.140;2022-10-04T03:12:16;100054.50;;;21.48;57.92
75065;BME280;63646;49.110;9.140;2022-10-04T03:14:41;100043.03;;;21.48;57.66
75065;BME280;63646;49.110;9.140;2022-10-04T03:17:08;100046.38;;;21.50;57.75
75065;BME280;63646;49.110;9.140;2022-10-04T03:19:34;100056.16;;;21.49;57.66
75065;BME280;63646;49.110;9.140;2022-10-04T03:22:11;100043.03;;;21.48;57.92
75065;BME280;63646;49.110;9.140;2022-10-04T03:24:42;100051.69;;;21.50;57.89
75065;BME280;63646;49.110;9.140;2022-10-04T03:27:14;100051.69;;;21.50;57.63
75065;BME280;63646;49.110;9.140;2022-10-04T03:29:41;100045.69;;;21.48;57.51
75065;BME280;63646;49.110;9.140;2022-10-04T03:32:11;100049.19;;;21.48;57.83
75065;BME280;63646;49.110;9.140;2022-10-04T03:34:39;100048.19;;;21.49;57.70
75065;BME280;63646;49.110;9.140;2022-10-04T03:37:09;100046.53;;;21.48;58.19
75065;BME280;63646;49.110;9.140;2022-10-04T03:39:41;100049.03;;;21.50;57.93
75065;BME280;63646;49.110;9.140;2022-10-04T03:42:19;100045.53;;;21.49;57.87
75065;BME280;63646;49.110;9.140;2022-10-04T03:44:48;100046.53;;;21.48;57.66
75065;BME280;63646;49.110;9.140;2022-10-04T03:47:26;100041.31;;;21.46;57.48
75065;BME280;63646;49.110;9.140;2022-10-04T03:49:57;100044.94;;;21.45;57.66
75065;BME280;63646;49.110;9.140;2022-10-04T03:52:31;100044.69;;;21.49;57.93
75065;BME280;63646;49.110;9.140;2022-10-04T03:55:01;100040.22;;;21.49;57.70
75065;BME280;63646;49.110;9.140;2022-10-04T03:57:28;100036.72;;;21.49;57.83
75065;BME280;63646;49.110;9.140;2022-10-04T03:59:54;100031.66;;;21.45;57.94
75065;BME280;63646;49.110;9.140;2022-10-04T04:10:02;100019.19;;;21.46;57.73
75065;BME280;63646;49.110;9.140;2022-10-04T04:15:21;100024.66;;;21.44;57.44
75065;BME280;63646;49.110;9.140;2022-10-04T04:17:51;100026.47;;;21.44;57.71
75065;BME280;63646;49.110;9.140;2022-10-04T04:20:30;100035.31;;;21.44;57.41
75065;BME280;63646;49.110;9.140;2022-10-04T04:26:28;100038.78;;;21.45;57.45
75065;BME280;63646;49.110;9.140;2022-10-04T04:28:41;100039.63;;;21.45;57.58
75065;BME280;63646;49.110;9.140;2022-10-04T04:34:00;100040.63;;;21.44;57.39
75065;BME280;63646;49.110;9.140;2022-10-04T04:36:28;100043.28;;;21.44;57.63
75065;BME280;63646;49.110;9.140;2022-10-04T04:39:12;100043.28;;;21.44;57.36
75065;BME280;63646;49.110;9.140;2022-10-04T04:41:57;100060.06;;;21.45;57.50
75065;BME280;63646;49.110;9.140;2022-10-04T04:44:23;100059.22;;;21.44;57.53
75065;BME280;63646;49.110;9.140;2022-10-04T04:46:49;100060.06;;;21.45;57.47
75065;BME280;63646;49.110;9.140;2022-10-04T04:49:15;100066.22;;;21.45;57.68
75065;BME280;63646;49.110;9.140;2022-10-04T04:51:49;100064.41;;;21.46;57.61
75065;BME280;63646;49.110;9.140;2022-10-04T04:54:17;100073.09;;;21.48;57.55
75065;BME280;63646;49.110;9.140;2022-10-04T04:56:47;100070.44;;;21.48;57.83
75065;BME280;63646;49.110;9.140;2022-10-04T04:59:14;100080.94;;;21.50;57.84
75065;BME280;63646;49.110;9.140;2022-10-04T05:01:41;100075.50;;;21.51;58.04
75065;BME280;63646;49.110;9.140;2022-10-04T05:06:42;100078.63;;;21.56;57.60
75065;BME280;63646;49.110;9.140;2022-10-04T05:11:46;100060.97;;;21.55;57.66
75065;BME280;63646;49.110;9.140;2022-10-04T05:14:14;100068.81;;;21.57;57.67
75065;BME280;63646;49.110;9.140;2022-10-04T05:16:45;100057.22;;;21.58;58.01
75065;BME280;63646;49.110;9.140;2022-10-04T05:19:17;100064.22;;;21.59;58.04
75065;BME280;63646;49.110;9.140;2022-10-04T05:21:46;100065.91;;;21.60;57.76
75065;BME280;63646;49.110;9.140;2022-10-04T05:24:32;100056.25;;;21.59;57.46
75065;BME280;63646;49.110;9.140;2022-10-04T05:27:03;100059.88;;;21.58;57.38
75065;BME280;63646;49.110;9.140;2022-10-04T05:29:38;100065.22;;;21.58;57.99
75065;BME280;63646;49.110;9.140;2022-10-04T05:34:41;100067.00;;;21.57;57.29
75065;BME280;63646;49.110;9.140;2022-10-04T05:42:20;100061.81;;;21.56;57.46
75065;BME280;63646;49.110;9.140;2022-10-04T05:44:55;100061.69;;;21.57;57.54
75065;BME280;63646;49.110;9.140;2022-10-04T05:47:24;100057.22;;;21.58;57.99
75065;BME280;63646;49.110;9.140;2022-10-04T05:49:53;100046.69;;;21.56;57.58
75065;BME280;63646;49.110;9.140;2022-10-04T05:52:34;100040.56;;;21.56;57.41
75065;BME280;63646;49.110;9.140;2022-10-04T06:00:20;100042.22;;;21.57;57.88
75065;BME280;63646;49.110;9.140;2022-10-04T06:16:16;100065.22;;;21.58;57.79
75065;BME280;63646;49.110;9.140;2022-10-04T06:21:15;100060.16;;;21.55;57.66
75065;BME280;63646;49.110;9.140;2022-10-04T06:23:54;100060.25;;;21.53;57.91
75065;BME280;63646;49.110;9.140;2022-10-04T06:26:24;100054.94;;;21.53;57.28
75065;BME280;63646;49.110;9.140;2022-10-04T06:28:58;100066.56;;;21.52;57.34
75065;BME280;63646;49.110;9.140;2022-10-04T06:45:26;100089.66;;;21.52;57.36
75065;BME280;63646;49.110;9.140;2022-10-04T06:51:51;100085.41;;;21.49;57.32
75065;BME280;63646;49.110;9.140;2022-10-04T06:57:15;100087.25;;;21.49;56.96
75065;BME280;63646;49.110;9.140;2022-10-04T07:00:13;100082.91;;;21.48;56.68
75065;BME280;63646;49.110;9.140;2022-10-04T07:03:04;100096.91;;;21.50;56.71
75065;BME280;63646;49.110;9.140;2022-10-04T07:08:21;100096.19;;;21.48;56.79
75065;BME280;63646;49.110;9.140;2022-10-04T07:11:23;100090.75;;;21.49;56.83
75065;BME280;63646;49.110;9.140;2022-10-04T07:16:46;100099.81;;;21.46;56.88
75065;BME280;63646;49.110;9.140;2022-10-04T07:19:35;100103.44;;;21.45;56.97
75065;BME280;63646;49.110;9.140;2022-10-04T07:27:28;100082.19;;;21.45;57.24
75065;BME280;63646;49.110;9.140;2022-10-04T07:29:57;100073.34;;;21.45;57.04
75065;BME280;63646;49.110;9.140;2022-10-04T07:37:35;100089.16;;;21.46;56.86
75065;BME280;63646;49.110;9.140;2022-10-04T07:40:21;100093.53;;;21.48;57.04
75065;BME280;63646;49.110;9.140;2022-10-04T07:42:52;100088.34;;;21.46;56.81
75065;BME280;63646;49.110;9.140;2022-10-04T07:45:24;100095.34;;;21.47;56.58
75065;BME280;63646;49.110;9.140;2022-10-04T07:48:01;100086.25;;;21.50;57.06
75065;BME280;63646;49.110;9.140;2022-10-04T07:50:36;100090.75;;;21.49;56.74
75065;BME280;63646;49.110;9.140;2022-10-04T07:53:08;100079.25;;;21.49;56.54
75065;BME280;63646;49.110;9.140;2022-10-04T07:55:48;100087.25;;;21.49;56.78
75065;BME280;63646;49.110;9.140;2022-10-04T08:00:58;100086.41;;;21.48;56.89
75065;BME280;63646;49.110;9.140;2022-10-04T08:17:24;100100.28;;;21.52;56.46
75065;BME280;63646;49.110;9.140;2022-10-04T08:28:11;100097.47;;;21.53;56.39
75065;BME280;63646;49.110;9.140;2022-10-04T08:39:32;100099.06;;;21.56;56.65
75065;BME280;63646;49.110;9.140;2022-10-04T09:12:41;100055.00;;;21.63;56.65
75065;BME280;63646;49.110;9.140;2022-10-04T09:15:27;100063.00;;;21.63;56.39
75065;BME280;63646;49.110;9.140;2022-10-04T09:18:00;100063.00;;;21.63;56.43
75065;BME280;63646;49.110;9.140;2022-10-04T10:01:19;100061.91;;;21.65;56.76
75065;BME280;63646;49.110;9.140;2022-10-04T10:26:06;100066.94;;;21.68;56.97
75065;BME280;63646;49.110;9.140;2022-10-04T10:42:50;100052.53;;;21.71;56.32
75065;BME280;63646;49.110;9.140;2022-10-04T10:59:29;100054.78;;;21.76;56.43
75065;BME280;63646;49.110;9.140;2022-10-04T11:30:22;100006.53;;;21.80;56.04
75065;BME280;63646;49.110;9.140;2022-10-04T11:33:28;100004.72;;;21.81;56.08
75065;BME280;63646;49.110;9.140;2022-10-04T11:39:00;100001.22;;;21.80;56.47
75065;BME280;63646;49.110;9.140;2022-10-04T11:41:41;99997.56;;;21.81;56.62
75065;BME280;63646;49.110;9.140;2022-10-04T11:47:33;99991.53;;;21.79;56.29
75065;BME280;63646;49.110;9.140;2022-10-04T11:50:16;99994.78;;;21.83;56.00
75065;BME280;63646;49.110;9.140;2022-10-04T12:09:58;99983.28;;;21.82;56.47
75065;BME280;63646;49.110;9.140;2022-10-04T12:18:03;99982.19;;;21.85;56.62
75065;BME280;63646;49.110;9.140;2022-10-04T12:23:40;99972.38;;;21.85;56.18
75065;BME280;63646;49.110;9.140;2022-10-04T12:34:28;99969.72;;;21.85;56.62
75065;BME280;63646;49.110;9.140;2022-10-04T12:41:01;99974.91;;;21.87;56.17
75065;BME280;63646;49.110;9.140;2022-10-04T12:43:03;99954.75;;;21.84;56.28
75065;BME280;63646;49.110;9.140;2022-10-04T12:52:06;99950.84;;;21.88;56.30
75065;BME280;63646;49.110;9.140;2022-10-04T12:57:19;99949.84;;;21.89;56.52
75065;BME280;63646;49.110;9.140;2022-10-04T13:02:37;99948.03;;;21.90;56.21
75065;BME280;63646;49.110;9.140;2022-10-04T13:16:23;99945.25;;;21.91;56.20
75065;BME280;63646;49.110;9.140;2022-10-04T13:22:45;99943.44;;;21.92;56.11
75065;BME280;63646;49.110;9.140;2022-10-04T13:28:23;99937.97;;;21.93;56.26
75065;BME280;63646;49.110;9.140;2022-10-04T13:31:12;99934.47;;;21.93;56.22
75065;BME280;63646;49.110;9.140;2022-10-04T13:34:23;99945.94;;;21.93;56.58
75065;BME280;63646;49.110;9.140;2022-10-04T13:40:35;99927.31;;;21.93;56.40
75065;BME280;63646;49.110;9.140;2022-10-04T13:43:09;99940.50;;;21.95;56.03
75065;BME280;63646;49.110;9.140;2022-10-04T13:46:08;99936.03;;;21.95;56.50
75065;BME280;63646;49.110;9.140;2022-10-04T13:54:27;99927.31;;;21.93;56.03
75065;BME280;63646;49.110;9.140;2022-10-04T13:57:41;99927.88;;;21.97;56.48
75065;BME280;63646;49.110;9.140;2022-10-04T14:00:13;99922.44;;;21.99;56.56
75065;BME280;63646;49.110;9.140;2022-10-04T14:05:39;99917.13;;;21.99;56.40
75065;BME280;63646;49.110;9.140;2022-10-04T14:42:45;99884.91;;;21.52;42.82
75065;BME280;63646;49.110;9.140;2022-10-04T14:53:24;99884.09;;;21.61;45.75
75065;BME280;63646;49.110;9.140;2022-10-04T15:03:48;99885.00;;;21.90;46.40
75065;BME280;63646;49.110;9.140;2022-10-04T15:09:25;99889.53;;;22.00;47.10
75065;BME280;63646;49.110;9.140;2022-10-04T15:17:30;99888.44;;;22.12;47.35
75065;BME280;63646;49.110;9.140;2022-10-04T15:22:44;99878.25;;;22.17;47.64
75065;BME280;63646;49.110;9.140;2022-10-04T15:31:11;99875.59;;;22.27;48.40
75065;BME280;63646;49.110;9.140;2022-10-04T15:56:51;99849.81;;;22.37;50.01
75065;BME280;63646;49.110;9.140;2022-10-04T16:09:53;99845.47;;;22.36;50.67
75065;BME280;63646;49.110;9.140;2022-10-04T16:13:16;99846.31;;;22.36;50.43
75065;BME280;63646;49.110;9.140;2022-10-04T16:15:36;99844.50;;;22.37;51.09
75065;BME280;63646;49.110;9.140;2022-10-04T16:23:36;99845.88;;;22.31;50.88
75065;BME280;63646;49.110;9.140;2022-10-04T16:31:45;99842.13;;;22.24;50.57
75065;BME280;63646;49.110;9.140;2022-10-04T16:36:57;99847.72;;;22.21;50.99
75065;BME280;63646;49.110;9.140;2022-10-04T16:42:22;99848.00;;;22.18;51.30
75065;BME280;63646;49.110;9.140;2022-10-04T16:47:34;99849.94;;;22.16;51.45
75065;BME280;63646;49.110;9.140;2022-10-04T16:50:03;99851.91;;;22.14;51.52
75065;BME280;63646;49.110;9.140;2022-10-04T16:55:03;99853.97;;;22.10;51.63
75065;BME280;63646;49.110;9.140;2022-10-04T16:57:34;99869.09;;;22.10;51.64
75065;BME280;63646;49.110;9.140;2022-10-04T17:00:34;99863.78;;;22.10;51.33
75065;BME280;63646;49.110;9.140;2022-10-04T17:03:13;99860.28;;;22.09;51.37
75065;BME280;63646;49.110;9.140;2022-10-04T17:06:15;99857.91;;;22.06;51.84
75065;BME280;63646;49.110;9.140;2022-10-04T17:20:26;99834.06;;;22.05;52.09
75065;BME280;63646;49.110;9.140;2022-10-04T17:26:05;99834.06;;;22.05;52.01
75065;BME280;63646;49.110;9.140;2022-10-04T17:28:55;99823.41;;;22.05;52.44
75065;BME280;63646;49.110;9.140;2022-10-04T17:31:46;99822.59;;;22.04;52.44
75065;BME280;63646;49.110;9.140;2022-10-04T17:37:02;99834.06;;;22.05;53.04
75065;BME280;63646;49.110;9.140;2022-10-04T17:48:02;99828.47;;;22.08;53.13
75065;BME280;63646;49.110;9.140;2022-10-04T17:53:45;99828.47;;;22.08;53.15
75065;BME280;63646;49.110;9.140;2022-10-04T17:59:42;99823.41;;;22.05;53.11
75065;BME280;63646;49.110;9.140;2022-10-04T18:02:42;99825.13;;;22.06;53.15
75065;BME280;63646;49.110;9.140;2022-10-04T18:05:20;99827.91;;;22.04;52.79
75065;BME280;63646;49.110;9.140;2022-10-04T18:07:53;99834.34;;;22.02;53.00
75065;BME280;63646;49.110;9.140;2022-10-04T18:13:08;99841.47;;;22.01;52.91
75065;BME280;63646;49.110;9.140;2022-10-04T18:15:59;99836.31;;;22.00;53.08
75065;BME280;63646;49.110;9.140;2022-10-04T18:18:29;99838.97;;;22.00;53.36
75065;BME280;63646;49.110;9.140;2022-10-04T18:26:00;99834.06;;;21.95;53.17
75065;BME280;63646;49.110;9.140;2022-10-04T18:28:27;99848.91;;;21.98;53.51
75065;BME280;63646;49.110;9.140;2022-10-04T18:30:57;99853.38;;;21.97;52.92
75065;BME280;63646;49.110;9.140;2022-10-04T18:33:46;99863.19;;;21.97;53.48
75065;BME280;63646;49.110;9.140;2022-10-04T18:38:45;99863.19;;;21.97;53.13
75065;BME280;63646;49.110;9.140;2022-10-04T18:43:49;99865.16;;;21.94;53.47
75065;BME280;63646;49.110;9.140;2022-10-04T18:46:17;99868.50;;;21.97;53.72
75065;BME280;63646;49.110;9.140;2022-10-04T18:54:19;99863.91;;;21.99;53.47
75065;BME280;63646;49.110;9.140;2022-10-04T18:59:42;99872.84;;;21.98;53.90
75065;BME280;63646;49.110;9.140;2022-10-04T19:02:41;99875.50;;;21.98;53.59
75065;BME280;63646;49.110;9.140;2022-10-04T19:05:24;99873.00;;;21.96;53.76
75065;BME280;63646;49.110;9.140;2022-10-04T19:13:06;99868.78;;;21.93;53.73
75065;BME280;63646;49.110;9.140;2022-10-04T19:16:29;99868.78;;;21.93;53.46
75065;BME280;63646;49.110;9.140;2022-10-04T19:24:54;99880.16;;;21.95;53.91
75065;BME280;63646;49.110;9.140;2022-10-04T19:29:45;99888.97;;;21.96;53.70
75065;BME280;63646;49.110;9.140;2022-10-04T19:38:05;99896.94;;;21.96;53.52
75065;BME280;63646;49.110;9.140;2022-10-04T19:48:46;99902.41;;;21.94;53.88
75065;BME280;63646;49.110;9.140;2022-10-04T19:51:32;99906.03;;;21.93;53.64
75065;BME280;63646;49.110;9.140;2022-10-04T19:54:25;99905.19;;;21.93;53.85
75065;BME280;63646;49.110;9.140;2022-10-04T19:56:57;99914.16;;;21.92;53.98
75065;BME280;63646;49.110;9.140;2022-10-04T19:59:39;99923.97;;;21.91;53.66
75065;BME280;63646;49.110;9.140;2022-10-04T20:02:09;99924.09;;;21.90;54.22
75065;BME280;63646;49.110;9.140;2022-10-04T20:04:35;99931.22;;;21.89;54.12
75065;BME280;63646;49.110;9.140;2022-10-04T20:07:04;99929.56;;;21.88;54.27
75065;BME280;63646;49.110;9.140;2022-10-04T20:15:41;99938.53;;;21.87;54.62
75065;BME280;63646;49.110;9.140;2022-10-04T20:26:10;99949.28;;;21.86;54.14
75065;BME280;63646;49.110;9.140;2022-10-04T20:31:06;99958.25;;;21.85;54.42
75065;BME280;63646;49.110;9.140;2022-10-04T20:38:56;99958.38;;;21.83;54.69
75065;BME280;63646;49.110;9.140;2022-10-04T20:43:55;99969.00;;;21.83;54.74
75065;BME280;63646;49.110;9.140;2022-10-04T20:46:28;99963.97;;;21.80;54.80
75065;BME280;63646;49.110;9.140;2022-10-04T20:48:56;99966.50;;;21.82;55.00
75065;BME280;63646;49.110;9.140;2022-10-04T20:51:23;99966.50;;;21.82;54.25
75065;BME280;63646;49.110;9.140;2022-10-04T20:53:52;99971.81;;;21.82;54.75
75065;BME280;63646;49.110;9.140;2022-10-04T20:56:31;99969.16;;;21.82;54.24
75065;BME280;63646;49.110;9.140;2022-10-04T20:59:02;99969.16;;;21.82;54.96
75065;BME280;63646;49.110;9.140;2022-10-04T21:01:33;99966.63;;;21.80;54.98
75065;BME280;63646;49.110;9.140;2022-10-04T21:04:13;99960.59;;;21.78;54.49
75065;BME280;63646;49.110;9.140;2022-10-04T21:06:57;99975.47;;;21.81;54.87
75065;BME280;63646;49.110;9.140;2022-10-04T21:09:24;99974.63;;;21.80;54.59
75065;BME280;63646;49.110;9.140;2022-10-04T21:11:54;99973.75;;;21.80;55.05
75065;BME280;63646;49.110;9.140;2022-10-04T21:14:27;99974.63;;;21.80;54.97
75065;BME280;63646;49.110;9.140;2022-10-04T21:16:57;99983.56;;;21.79;54.73
75065;BME280;63646;49.110;9.140;2022-10-04T21:22:01;99980.88;;;21.79;54.71
75065;BME280;63646;49.110;9.140;2022-10-04T21:26:56;99973.06;;;21.78;54.59
75065;BME280;63646;49.110;9.140;2022-10-04T21:29:21;99981.03;;;21.78;54.89
75065;BME280;63646;49.110;9.140;2022-10-04T21:31:46;99974.88;;;21.77;54.74
75065;BME280;63646;49.110;9.140;2022-10-04T21:34:12;99978.38;;;21.78;54.79
75065;BME280;63646;49.110;9.140;2022-10-04T21:36:37;99984.53;;;21.78;55.07
75065;BME280;63646;49.110;9.140;2022-10-04T21:39:03;99984.53;;;21.78;55.32
75065;BME280;63646;49.110;9.140;2022-10-04T21:41:28;99983.84;;;21.76;54.95
75065;BME280;63646;49.110;9.140;2022-10-04T21:43:53;99990.00;;;21.77;54.72
75065;BME280;63646;49.110;9.140;2022-10-04T21:46:19;99986.63;;;21.75;55.16
75065;BME280;63646;49.110;9.140;2022-10-04T21:48:44;99987.47;;;21.75;54.90
75065;BME280;63646;49.110;9.140;2022-10-04T21:51:09;99991.94;;;21.75;55.11
75065;BME280;63646;49.110;9.140;2022-10-04T21:53:35;99986.75;;;21.73;54.72
75065;BME280;63646;49.110;9.140;2022-10-04T21:56:00;99996.41;;;21.74;54.84
75065;BME280;63646;49.110;9.140;2022-10-04T21:58:27;99989.44;;;21.73;55.07
75065;BME280;63646;49.110;9.140;2022-10-04T22:00:52;99991.94;;;21.75;55.36
75065;BME280;63646;49.110;9.140;2022-10-04T22:03:18;99982.41;;;21.72;55.33
75065;BME280;63646;49.110;9.140;2022-10-04T22:05:43;99973.56;;;21.71;54.84
75065;BME280;63646;49.110;9.140;2022-10-04T22:08:09;99976.81;;;21.75;55.18
75065;BME280;63646;49.110;9.140;2022-10-04T22:10:34;99969.38;;;21.69;55.25
75065;BME280;63646;49.110;9.140;2022-10-04T22:13:00;99969.81;;;21.74;54.84
75065;BME280;63646;49.110;9.140;2022-10-04T22:15:26;99968.16;;;21.73;55.13
75065;BME280;63646;49.110;9.140;2022-10-04T22:17:52;99957.50;;;21.73;54.76
75065;BME280;63646;49.110;9.140;2022-10-04T22:20:18;99955.78;;;21.72;54.73
75065;BME280;63646;49.110;9.140;2022-10-04T22:22:43;99947.69;;;21.74;55.05
75065;BME280;63646;49.110;9.140;2022-10-04T22:25:16;99947.13;;;21.70;54.93
75065;BME280;63646;49.110;9.140;2022-10-04T22:27:42;99945.44;;;21.69;54.61
75065;BME280;63646;49.110;9.140;2022-10-04T22:30:22;99941.81;;;21.70;54.99
75065;BME280;63646;49.110;9.140;2022-10-04T22:32:48;99935.75;;;21.68;55.04
75065;BME280;63646;49.110;9.140;2022-10-04T22:35:17;99943.75;;;21.68;55.20
75065;BME280;63646;49.110;9.140;2022-10-04T22:37:43;99942.06;;;21.67;55.36
75065;BME280;63646;49.110;9.140;2022-10-04T22:40:27;99944.59;;;21.68;54.93
75065;BME280;63646;49.110;9.140;2022-10-04T22:42:54;99943.06;;;21.66;54.88
75065;BME280;63646;49.110;9.140;2022-10-04T22:45:25;99952.72;;;21.67;54.83
75065;BME280;63646;49.110;9.140;2022-10-04T22:47:52;99945.72;;;21.66;54.69
75065;BME280;63646;49.110;9.140;2022-10-04T22:50:35;99936.75;;;21.67;54.99
75065;BME280;63646;49.110;9.140;2022-10-04T22:53:09;99934.09;;;21.67;55.27
75065;BME280;63646;49.110;9.140;2022-10-04T22:55:35;99937.84;;;21.64;55.63
75065;BME280;63646;49.110;9.140;2022-10-04T22:58:01;99935.06;;;21.66;55.09
75065;BME280;63646;49.110;9.140;2022-10-04T23:00:27;99932.53;;;21.64;55.42
75065;BME280;63646;49.110;9.140;2022-10-04T23:02:53;99933.25;;;21.66;55.57
75065;BME280;63646;49.110;9.140;2022-10-04T23:05:19;99927.22;;;21.64;55.01
75065;BME280;63646;49.110;9.140;2022-10-04T23:07:46;99923.72;;;21.64;55.01
75065;BME280;63646;49.110;9.140;2022-10-04T23:10:14;99920.06;;;21.65;55.45
75065;BME280;63646;49.110;9.140;2022-10-04T23:12:43;99917.56;;;21.63;55.08
75065;BME280;63646;49.110;9.140;2022-10-04T23:15:14;99915.72;;;21.64;55.45
75065;BME280;63646;49.110;9.140;2022-10-04T23:17:40;99921.06;;;21.64;55.01
75065;BME280;63646;49.110;9.140;2022-10-04T23:20:08;99928.03;;;21.65;55.31
75065;BME280;63646;49.110;9.140;2022-10-04T23:22:35;99931.69;;;21.64;55.50
75065;BME280;63646;49.110;9.140;2022-10-04T23:25:01;99925.53;;;21.63;55.11
75065;BME280;63646;49.110;9.140;2022-10-04T23:27:27;99920.22;;;21.63;55.35
75065;BME280;63646;49.110;9.140;2022-10-04T23:30:00;99924.56;;;21.64;55.30
75065;BME280;63646;49.110;9.140;2022-10-04T23:32:26;99924.81;;;21.61;55.16
75065;BME280;63646;49.110;9.140;2022-10-04T23:34:52;99931.84;;;21.62;55.38
75065;BME280;63646;49.110;9.140;2022-10-04T23:37:22;99921.06;;;21.64;55.42
75065;BME280;63646;49.110;9.140;2022-10-04T23:39:48;99923.84;;;21.62;55.04
75065;BME280;63646;49.110;9.140;2022-10-04T23:42:25;99923.03;;;21.62;55.58
75065;BME280;63646;49.110;9.140;2022-10-04T23:44:54;99927.34;;;21.63;55.57
75065;BME280;63646;49.110;9.140;2022-10-04T23:47:22;99923.03;;;21.62;55.47
75065;BME280;63646;49.110;9.140;2022-10-04T23:49:51;99917.69;;;21.62;55.46
75065;BME280;63646;49.110;9.140;2022-10-04T23:52:23;99921.31;;;21.61;55.24
75065;BME280;63646;49.110;9.140;2022-10-04T23:54:50;99923.84;;;21.62;55.28
75065;BME280;63646;49.110;9.140;2022-10-04T23:57:23;99919.63;;;21.60;55.48
75065;BME280;63646;49.110;9.140;2022-10-04T23:59:50;99916.97;;;21.60;55.04
